sensor_id;sensor_type;location;lat;lon;timestamp;temperature;humidity
8824;DHT22;4448;50.904;4.694;2023-02-15T00:01:17;6.80;99.90
8824;DHT22;4448;50.904;4.694;2023-02-15T00:03:42;6.80;99.90
8824;DHT22;4448;50.904;4.694;2023-02-15T00:06:08;6.80;99.90
8824;DHT22;4448;50.904;4.694;2023-02-15T00:08:34;6.80;99.90
8824;DHT22;4448;50.904;4.694;2023-02-15T00:11:08;6.80;99.90
8824;DHT22;4448;50.904;4.694;2023-02-15T00:13:34;6.80;99.90
8824;DHT22;4448;50.904;4.694;2023-02-15T00:16:06;6.70;99.90
8824;DHT22;4448;50.904;4.694;2023-02-15T00:18:33;6.70;99.90
8824;DHT22;4448;50.904;4.694;2023-02-15T00:21:03;6.70;99.90
8824;DHT22;4448;50.904;4.694;2023-02-15T00:23:29;6.70;99.90
8824;DHT22;4448;50.904;4.694;2023-02-15T00:26:08;6.70;99.90
8824;DHT22;4448;50.904;4.694;2023-02-15T00:28:34;6.70;99.90
8824;DHT22;4448;50.904;4.694;2023-02-15T00:31:10;6.70;99.90
8824;DHT22;4448;50.904;4.694;2023-02-15T00:33:37;6.60;99.90
8824;DHT22;4448;50.904;4.694;2023-02-15T00:36:06;6.60;99.90
8824;DHT22;4448;50.904;4.694;2023-02-15T00:38:32;6.60;99.90
8824;DHT22;4448;50.904;4.694;2023-02-15T00:41:01;6.60;99.90
8824;DHT22;4448;50.904;4.694;2023-02-15T00:43:28;6.60;99.90
8824;DHT22;4448;50.904;4.694;2023-02-15T00:45:54;6.50;99.90
8824;DHT22;4448;50.904;4.694;2023-02-15T00:48:20;6.50;99.90
8824;DHT22;4448;50.904;4.694;2023-02-15T00:50:50;6.50;99.90
8824;DHT22;4448;50.904;4.694;2023-02-15T00:53:16;6.50;99.90
8824;DHT22;4448;50.904;4.694;2023-02-15T00:55:42;6.50;99.90
8824;DHT22;4448;50.904;4.694;2023-02-15T00:58:09;6.50;99.90
8824;DHT22;4448;50.904;4.694;2023-02-15T01:00:34;6.40;99.90
8824;DHT22;4448;50.904;4.694;2023-02-15T01:03:00;6.50;99.90
8824;DHT22;4448;50.904;4.694;2023-02-15T01:05:26;6.40;99.90
8824;DHT22;4448;50.904;4.694;2023-02-15T01:07:52;6.40;99.90
8824;DHT22;4448;50.904;4.694;2023-02-15T01:10:17;6.40;99.90
8824;DHT22;4448;50.904;4.694;2023-02-15T01:12:43;6.30;99.90
8824;DHT22;4448;50.904;4.694;2023-02-15T01:15:09;6.30;99.90
8824;DHT22;4448;50.904;4.694;2023-02-15T01:17:36;6.30;99.90
8824;DHT22;4448;50.904;4.694;2023-02-15T01:20:02;6.30;99.90
8824;DHT22;4448;50.904;4.694;2023-02-15T01:22:27;6.30;99.90
8824;DHT22;4448;50.904;4.694;2023-02-15T01:24:53;6.30;99.90
8824;DHT22;4448;50.904;4.694;2023-02-15T01:27:18;6.20;99.90
8824;DHT22;4448;50.904;4.694;2023-02-15T01:29:44;6.20;99.90
8824;DHT22;4448;50.904;4.694;2023-02-15T01:32:10;6.20;99.90
8824;DHT22;4448;50.904;4.694;2023-02-15T01:34:35;6.20;99.90
8824;DHT22;4448;50.904;4.694;2023-02-15T01:37:01;6.20;99.90
8824;DHT22;4448;50.904;4.694;2023-02-15T01:39:27;6.10;99.90
8824;DHT22;4448;50.904;4.694;2023-02-15T01:41:52;6.20;99.90
8824;DHT22;4448;50.904;4.694;2023-02-15T01:44:45;6.10;99.90
8824;DHT22;4448;50.904;4.694;2023-02-15T01:50:44;6.10;99.90
8824;DHT22;4448;50.904;4.694;2023-02-15T01:52:54;6.10;99.90
8824;DHT22;4448;50.904;4.694;2023-02-15T01:55:23;6.00;99.90
8824;DHT22;4448;50.904;4.694;2023-02-15T01:57:51;6.00;99.90
8824;DHT22;4448;50.904;4.694;2023-02-15T02:00:18;6.10;99.90
8824;DHT22;4448;50.904;4.694;2023-02-15T02:02:45;6.00;99.90
8824;DHT22;4448;50.904;4.694;2023-02-15T02:05:12;6.00;99.90
8824;DHT22;4448;50.904;4.694;2023-02-15T02:07:41;6.00;99.90
8824;DHT22;4448;50.904;4.694;2023-02-15T02:10:09;6.00;99.90
8824;DHT22;4448;50.904;4.694;2023-02-15T02:12:36;5.90;99.90
8824;DHT22;4448;50.904;4.694;2023-02-15T02:15:02;5.90;99.90
8824;DHT22;4448;50.904;4.694;2023-02-15T02:34:19;5.80;99.90
8824;DHT22;4448;50.904;4.694;2023-02-15T02:37:08;5.80;99.90
8824;DHT22;4448;50.904;4.694;2023-02-15T02:42:13;5.90;99.90
8824;DHT22;4448;50.904;4.694;2023-02-15T02:44:43;5.80;99.90
8824;DHT22;4448;50.904;4.694;2023-02-15T02:47:19;5.80;99.90
8824;DHT22;4448;50.904;4.694;2023-02-15T02:49:48;5.80;99.90
8824;DHT22;4448;50.904;4.694;2023-02-15T02:55:07;5.80;99.90
8824;DHT22;4448;50.904;4.694;2023-02-15T02:57:36;5.70;99.90
8824;DHT22;4448;50.904;4.694;2023-02-15T03:00:04;5.70;99.90
8824;DHT22;4448;50.904;4.694;2023-02-15T03:02:36;5.70;99.90
8824;DHT22;4448;50.904;4.694;2023-02-15T03:05:06;5.70;99.90
8824;DHT22;4448;50.904;4.694;2023-02-15T03:07:33;5.70;99.90
8824;DHT22;4448;50.904;4.694;2023-02-15T03:10:01;5.60;99.90
8824;DHT22;4448;50.904;4.694;2023-02-15T03:12:33;5.60;99.90
8824;DHT22;4448;50.904;4.694;2023-02-15T03:15:05;5.60;99.90
8824;DHT22;4448;50.904;4.694;2023-02-15T03:17:34;5.60;99.90
8824;DHT22;4448;50.904;4.694;2023-02-15T03:20:09;5.60;99.90
8824;DHT22;4448;50.904;4.694;2023-02-15T03:22:39;5.60;99.90
8824;DHT22;4448;50.904;4.694;2023-02-15T03:25:25;5.60;99.90
8824;DHT22;4448;50.904;4.694;2023-02-15T03:27:59;5.60;99.90
8824;DHT22;4448;50.904;4.694;2023-02-15T03:30:26;5.60;99.90
8824;DHT22;4448;50.904;4.694;2023-02-15T03:32:53;5.50;99.90
8824;DHT22;4448;50.904;4.694;2023-02-15T03:35:23;5.60;99.90
8824;DHT22;4448;50.904;4.694;2023-02-15T03:37:57;5.60;99.90
8824;DHT22;4448;50.904;4.694;2023-02-15T03:40:38;5.50;99.90
8824;DHT22;4448;50.904;4.694;2023-02-15T03:48:56;5.50;99.90
8824;DHT22;4448;50.904;4.694;2023-02-15T03:51:32;5.50;99.90
8824;DHT22;4448;50.904;4.694;2023-02-15T03:54:07;5.50;99.90
8824;DHT22;4448;50.904;4.694;2023-02-15T03:56:39;5.40;99.90
8824;DHT22;4448;50.904;4.694;2023-02-15T03:59:06;5.40;99.90
8824;DHT22;4448;50.904;4.694;2023-02-15T04:02:14;5.40;99.90
8824;DHT22;4448;50.904;4.694;2023-02-15T04:04:47;5.40;99.90
8824;DHT22;4448;50.904;4.694;2023-02-15T04:07:13;5.40;99.90
8824;DHT22;4448;50.904;4.694;2023-02-15T04:09:39;5.30;99.90
8824;DHT22;4448;50.904;4.694;2023-02-15T04:12:23;5.40;99.90
8824;DHT22;4448;50.904;4.694;2023-02-15T04:14:49;5.40;99.90
8824;DHT22;4448;50.904;4.694;2023-02-15T04:17:33;5.40;99.90
8824;DHT22;4448;50.904;4.694;2023-02-15T04:19:58;5.40;99.90
8824;DHT22;4448;50.904;4.694;2023-02-15T04:22:43;5.40;99.90
8824;DHT22;4448;50.904;4.694;2023-02-15T04:25:28;5.30;99.90
8824;DHT22;4448;50.904;4.694;2023-02-15T04:27:54;5.40;99.90
8824;DHT22;4448;50.904;4.694;2023-02-15T04:30:22;5.30;99.90
8824;DHT22;4448;50.904;4.694;2023-02-15T04:32:49;5.30;99.90
8824;DHT22;4448;50.904;4.694;2023-02-15T04:35:14;5.40;99.90
8824;DHT22;4448;50.904;4.694;2023-02-15T04:37:41;5.40;99.90
8824;DHT22;4448;50.904;4.694;2023-02-15T04:40:09;5.40;99.90
8824;DHT22;4448;50.904;4.694;2023-02-15T04:42:35;5.30;99.90
8824;DHT22;4448;50.904;4.694;2023-02-15T04:45:02;5.30;99.90
8824;DHT22;4448;50.904;4.694;2023-02-15T04:47:28;5.30;99.90
8824;DHT22;4448;50.904;4.694;2023-02-15T04:49:53;5.30;99.90
8824;DHT22;4448;50.904;4.694;2023-02-15T04:52:19;5.30;99.90
8824;DHT22;4448;50.904;4.694;2023-02-15T04:54:45;5.30;99.90
8824;DHT22;4448;50.904;4.694;2023-02-15T04:57:11;5.30;99.90
8824;DHT22;4448;50.904;4.694;2023-02-15T04:59:36;4.90;99.90
8824;DHT22;4448;50.904;4.694;2023-02-15T05:02:02;5.30;99.90
8824;DHT22;4448;50.904;4.694;2023-02-15T05:04:28;5.30;99.90
8824;DHT22;4448;50.904;4.694;2023-02-15T05:06:54;5.30;99.90
8824;DHT22;4448;50.904;4.694;2023-02-15T05:09:19;5.30;99.90
8824;DHT22;4448;50.904;4.694;2023-02-15T05:11:45;5.20;99.90
8824;DHT22;4448;50.904;4.694;2023-02-15T05:14:11;5.20;99.90
8824;DHT22;4448;50.904;4.694;2023-02-15T05:16:37;5.30;99.90
8824;DHT22;4448;50.904;4.694;2023-02-15T05:19:03;5.20;99.90
8824;DHT22;4448;50.904;4.694;2023-02-15T05:21:28;5.30;99.90
8824;DHT22;4448;50.904;4.694;2023-02-15T05:23:54;5.20;99.90
8824;DHT22;4448;50.904;4.694;2023-02-15T05:26:22;5.20;99.90
8824;DHT22;4448;50.904;4.694;2023-02-15T05:29:07;5.20;99.90
8824;DHT22;4448;50.904;4.694;2023-02-15T05:31:33;5.20;99.90
8824;DHT22;4448;50.904;4.694;2023-02-15T05:33:59;5.10;99.90
8824;DHT22;4448;50.904;4.694;2023-02-15T05:36:25;5.10;99.90
8824;DHT22;4448;50.904;4.694;2023-02-15T05:38:51;5.10;99.90
8824;DHT22;4448;50.904;4.694;2023-02-15T05:41:16;5.10;99.90
8824;DHT22;4448;50.904;4.694;2023-02-15T05:43:42;5.10;99.90
8824;DHT22;4448;50.904;4.694;2023-02-15T05:46:08;5.10;99.90
8824;DHT22;4448;50.904;4.694;2023-02-15T05:48:34;5.10;99.90
8824;DHT22;4448;50.904;4.694;2023-02-15T05:51:11;5.10;99.90
8824;DHT22;4448;50.904;4.694;2023-02-15T05:53:41;5.10;99.90
8824;DHT22;4448;50.904;4.694;2023-02-15T05:56:08;5.10;99.90
8824;DHT22;4448;50.904;4.694;2023-02-15T05:58:43;5.10;99.90
8824;DHT22;4448;50.904;4.694;2023-02-15T06:01:10;5.10;99.90
8824;DHT22;4448;50.904;4.694;2023-02-15T06:03:37;5.10;99.90
8824;DHT22;4448;50.904;4.694;2023-02-15T06:06:02;5.10;99.90
8824;DHT22;4448;50.904;4.694;2023-02-15T06:08:30;5.10;99.90
8824;DHT22;4448;50.904;4.694;2023-02-15T06:10:56;5.00;99.90
8824;DHT22;4448;50.904;4.694;2023-02-15T06:13:21;5.00;99.90
8824;DHT22;4448;50.904;4.694;2023-02-15T06:15:47;5.00;99.90
8824;DHT22;4448;50.904;4.694;2023-02-15T06:18:12;5.00;99.90
8824;DHT22;4448;50.904;4.694;2023-02-15T06:20:38;5.00;99.90
8824;DHT22;4448;50.904;4.694;2023-02-15T06:23:04;5.00;99.90
8824;DHT22;4448;50.904;4.694;2023-02-15T06:25:30;5.00;99.90
8824;DHT22;4448;50.904;4.694;2023-02-15T06:27:55;5.00;99.90
8824;DHT22;4448;50.904;4.694;2023-02-15T06:30:21;5.00;99.90
8824;DHT22;4448;50.904;4.694;2023-02-15T06:32:47;5.00;99.90
8824;DHT22;4448;50.904;4.694;2023-02-15T06:35:12;5.00;99.90
8824;DHT22;4448;50.904;4.694;2023-02-15T06:37:38;5.00;99.90
8824;DHT22;4448;50.904;4.694;2023-02-15T06:40:04;5.00;99.90
8824;DHT22;4448;50.904;4.694;2023-02-15T06:42:30;5.00;99.90
8824;DHT22;4448;50.904;4.694;2023-02-15T06:44:56;5.00;99.90
8824;DHT22;4448;50.904;4.694;2023-02-15T06:47:22;5.00;99.90
8824;DHT22;4448;50.904;4.694;2023-02-15T06:49:47;4.90;99.90
8824;DHT22;4448;50.904;4.694;2023-02-15T06:52:13;4.80;99.90
8824;DHT22;4448;50.904;4.694;2023-02-15T06:54:38;4.80;99.90
8824;DHT22;4448;50.904;4.694;2023-02-15T06:57:04;4.80;99.90
8824;DHT22;4448;50.904;4.694;2023-02-15T06:59:30;4.90;99.90
8824;DHT22;4448;50.904;4.694;2023-02-15T07:01:55;4.90;99.90
8824;DHT22;4448;50.904;4.694;2023-02-15T07:04:21;4.90;99.90
8824;DHT22;4448;50.904;4.694;2023-02-15T07:06:47;4.90;99.90
8824;DHT22;4448;50.904;4.694;2023-02-15T07:09:12;4.90;99.90
8824;DHT22;4448;50.904;4.694;2023-02-15T07:11:38;4.90;99.90
8824;DHT22;4448;50.904;4.694;2023-02-15T07:14:22;4.90;99.90
8824;DHT22;4448;50.904;4.694;2023-02-15T07:16:48;4.90;99.90
8824;DHT22;4448;50.904;4.694;2023-02-15T07:19:13;4.90;99.90
8824;DHT22;4448;50.904;4.694;2023-02-15T07:21:39;4.90;99.90
8824;DHT22;4448;50.904;4.694;2023-02-15T07:24:05;4.90;99.90
8824;DHT22;4448;50.904;4.694;2023-02-15T07:26:33;4.90;99.90
8824;DHT22;4448;50.904;4.694;2023-02-15T07:28:59;4.90;99.90
8824;DHT22;4448;50.904;4.694;2023-02-15T07:31:25;4.90;99.90
8824;DHT22;4448;50.904;4.694;2023-02-15T07:33:50;4.90;99.90
8824;DHT22;4448;50.904;4.694;2023-02-15T07:36:16;5.00;99.90
8824;DHT22;4448;50.904;4.694;2023-02-15T07:38:41;5.00;99.90
8824;DHT22;4448;50.904;4.694;2023-02-15T07:41:13;5.00;99.90
8824;DHT22;4448;50.904;4.694;2023-02-15T07:43:41;5.00;99.90
8824;DHT22;4448;50.904;4.694;2023-02-15T07:46:12;5.00;99.90
8824;DHT22;4448;50.904;4.694;2023-02-15T07:48:40;5.10;99.90
8824;DHT22;4448;50.904;4.694;2023-02-15T07:51:07;5.10;99.90
8824;DHT22;4448;50.904;4.694;2023-02-15T07:53:35;5.10;99.90
8824;DHT22;4448;50.904;4.694;2023-02-15T07:56:02;5.10;99.90
8824;DHT22;4448;50.904;4.694;2023-02-15T07:58:28;5.20;99.90
8824;DHT22;4448;50.904;4.694;2023-02-15T08:01:13;5.20;99.90
8824;DHT22;4448;50.904;4.694;2023-02-15T08:03:39;5.30;99.90
8824;DHT22;4448;50.904;4.694;2023-02-15T08:06:05;5.20;99.90
8824;DHT22;4448;50.904;4.694;2023-02-15T08:08:30;5.20;99.90
8824;DHT22;4448;50.904;4.694;2023-02-15T08:11:03;5.30;99.90
8824;DHT22;4448;50.904;4.694;2023-02-15T08:13:49;5.30;99.90
8824;DHT22;4448;50.904;4.694;2023-02-15T08:18:47;5.40;99.90
8824;DHT22;4448;50.904;4.694;2023-02-15T08:21:13;5.40;99.90
8824;DHT22;4448;50.904;4.694;2023-02-15T08:23:39;5.40;99.90
8824;DHT22;4448;50.904;4.694;2023-02-15T08:26:04;5.50;99.90
8824;DHT22;4448;50.904;4.694;2023-02-15T08:28:30;5.50;99.90
8824;DHT22;4448;50.904;4.694;2023-02-15T08:31:04;5.60;99.90
8824;DHT22;4448;50.904;4.694;2023-02-15T08:33:30;5.60;99.90
8824;DHT22;4448;50.904;4.694;2023-02-15T08:35:56;5.60;99.90
8824;DHT22;4448;50.904;4.694;2023-02-15T08:38:21;5.70;99.90
8824;DHT22;4448;50.904;4.694;2023-02-15T08:40:47;5.70;99.90
8824;DHT22;4448;50.904;4.694;2023-02-15T08:43:12;5.70;99.90
8824;DHT22;4448;50.904;4.694;2023-02-15T08:45:38;5.80;99.90
8824;DHT22;4448;50.904;4.694;2023-02-15T08:48:09;5.80;99.90
8824;DHT22;4448;50.904;4.694;2023-02-15T08:50:35;5.90;99.90
8824;DHT22;4448;50.904;4.694;2023-02-15T08:53:00;5.90;99.90
8824;DHT22;4448;50.904;4.694;2023-02-15T08:55:26;6.00;99.90
8824;DHT22;4448;50.904;4.694;2023-02-15T08:57:52;6.00;99.90
8824;DHT22;4448;50.904;4.694;2023-02-15T09:00:21;6.10;99.90
8824;DHT22;4448;50.904;4.694;2023-02-15T09:02:48;6.20;99.90
8824;DHT22;4448;50.904;4.694;2023-02-15T09:05:13;6.20;99.90
8824;DHT22;4448;50.904;4.694;2023-02-15T09:07:39;6.30;99.90
8824;DHT22;4448;50.904;4.694;2023-02-15T09:10:06;6.30;99.90
8824;DHT22;4448;50.904;4.694;2023-02-15T09:12:32;6.40;99.90
8824;DHT22;4448;50.904;4.694;2023-02-15T09:14:58;6.40;99.90
8824;DHT22;4448;50.904;4.694;2023-02-15T09:17:23;6.50;99.90
8824;DHT22;4448;50.904;4.694;2023-02-15T09:19:49;6.50;99.90
8824;DHT22;4448;50.904;4.694;2023-02-15T09:22:15;6.60;99.90
8824;DHT22;4448;50.904;4.694;2023-02-15T09:24:40;6.70;99.90
8824;DHT22;4448;50.904;4.694;2023-02-15T09:27:07;6.80;99.90
8824;DHT22;4448;50.904;4.694;2023-02-15T09:29:33;6.80;99.90
8824;DHT22;4448;50.904;4.694;2023-02-15T09:31:59;6.90;99.90
8824;DHT22;4448;50.904;4.694;2023-02-15T09:34:24;6.90;99.90
8824;DHT22;4448;50.904;4.694;2023-02-15T09:36:51;7.00;99.90
8824;DHT22;4448;50.904;4.694;2023-02-15T09:39:21;7.10;99.90
8824;DHT22;4448;50.904;4.694;2023-02-15T09:44:27;7.20;99.90
8824;DHT22;4448;50.904;4.694;2023-02-15T10:09:03;8.00;99.90
8824;DHT22;4448;50.904;4.694;2023-02-15T10:24:48;8.40;99.90
8824;DHT22;4448;50.904;4.694;2023-02-15T10:27:20;8.40;99.90
8824;DHT22;4448;50.904;4.694;2023-02-15T10:33:14;8.60;99.90
8824;DHT22;4448;50.904;4.694;2023-02-15T10:35:48;8.70;99.90
8824;DHT22;4448;50.904;4.694;2023-02-15T10:38:41;8.80;99.90
8824;DHT22;4448;50.904;4.694;2023-02-15T10:58:04;9.30;99.90
8824;DHT22;4448;50.904;4.694;2023-02-15T11:03:15;9.50;99.90
8824;DHT22;4448;50.904;4.694;2023-02-15T11:06:09;9.50;99.90
8824;DHT22;4448;50.904;4.694;2023-02-15T11:08:52;9.60;99.90
8824;DHT22;4448;50.904;4.694;2023-02-15T11:11:26;9.70;99.90
8824;DHT22;4448;50.904;4.694;2023-02-15T11:14:00;9.80;99.90
8824;DHT22;4448;50.904;4.694;2023-02-15T11:16:32;9.90;99.90
8824;DHT22;4448;50.904;4.694;2023-02-15T11:19:10;10.10;99.90
8824;DHT22;4448;50.904;4.694;2023-02-15T11:21:40;10.40;99.90
8824;DHT22;4448;50.904;4.694;2023-02-15T11:24:19;10.50;99.90
8824;DHT22;4448;50.904;4.694;2023-02-15T11:26:54;10.50;99.90
8824;DHT22;4448;50.904;4.694;2023-02-15T11:29:31;10.80;99.90
8824;DHT22;4448;50.904;4.694;2023-02-15T11:32:18;10.80;99.90
8824;DHT22;4448;50.904;4.694;2023-02-15T11:37:29;10.80;99.90
8824;DHT22;4448;50.904;4.694;2023-02-15T11:39:56;10.80;99.90
8824;DHT22;4448;50.904;4.694;2023-02-15T11:42:24;10.80;99.90
8824;DHT22;4448;50.904;4.694;2023-02-15T11:45:16;10.80;99.90
8824;DHT22;4448;50.904;4.694;2023-02-15T11:47:45;10.80;99.90
8824;DHT22;4448;50.904;4.694;2023-02-15T11:50:23;10.80;99.90
8824;DHT22;4448;50.904;4.694;2023-02-15T11:52:51;10.70;99.90
8824;DHT22;4448;50.904;4.694;2023-02-15T11:55:21;10.80;99.90
8824;DHT22;4448;50.904;4.694;2023-02-15T11:57:57;10.70;99.90
8824;DHT22;4448;50.904;4.694;2023-02-15T12:00:40;10.80;99.90
8824;DHT22;4448;50.904;4.694;2023-02-15T12:05:41;10.80;99.90
8824;DHT22;4448;50.904;4.694;2023-02-15T12:08:17;10.80;99.90
8824;DHT22;4448;50.904;4.694;2023-02-15T12:14:03;10.80;99.90
8824;DHT22;4448;50.904;4.694;2023-02-15T12:16:51;10.80;99.90
8824;DHT22;4448;50.904;4.694;2023-02-15T12:19:31;10.80;99.90
8824;DHT22;4448;50.904;4.694;2023-02-15T12:21:58;10.90;99.90
8824;DHT22;4448;50.904;4.694;2023-02-15T12:24:34;10.90;99.90
8824;DHT22;4448;50.904;4.694;2023-02-15T12:29:43;10.90;99.90
8824;DHT22;4448;50.904;4.694;2023-02-15T12:32:33;10.90;99.90
8824;DHT22;4448;50.904;4.694;2023-02-15T12:35:07;10.90;99.90
8824;DHT22;4448;50.904;4.694;2023-02-15T12:37:33;10.90;99.90
8824;DHT22;4448;50.904;4.694;2023-02-15T12:40:20;10.90;99.90
8824;DHT22;4448;50.904;4.694;2023-02-15T12:42:46;10.90;99.90
8824;DHT22;4448;50.904;4.694;2023-02-15T12:45:28;10.90;99.90
8824;DHT22;4448;50.904;4.694;2023-02-15T12:50:48;11.00;99.90
8824;DHT22;4448;50.904;4.694;2023-02-15T12:56:02;11.00;99.90
8824;DHT22;4448;50.904;4.694;2023-02-15T12:58:30;11.00;99.90
8824;DHT22;4448;50.904;4.694;2023-02-15T13:01:19;11.00;99.90
8824;DHT22;4448;50.904;4.694;2023-02-15T13:06:18;11.00;99.90
8824;DHT22;4448;50.904;4.694;2023-02-15T13:08:52;11.10;99.90
8824;DHT22;4448;50.904;4.694;2023-02-15T13:11:28;11.10;99.90
8824;DHT22;4448;50.904;4.694;2023-02-15T13:14:01;11.10;99.90
8824;DHT22;4448;50.904;4.694;2023-02-15T13:16:38;11.10;99.90
8824;DHT22;4448;50.904;4.694;2023-02-15T13:19:23;11.10;99.90
8824;DHT22;4448;50.904;4.694;2023-02-15T13:21:53;11.20;99.90
8824;DHT22;4448;50.904;4.694;2023-02-15T13:24:33;11.20;99.90
8824;DHT22;4448;50.904;4.694;2023-02-15T13:27:04;11.20;99.90
8824;DHT22;4448;50.904;4.694;2023-02-15T13:29:37;11.20;99.90
8824;DHT22;4448;50.904;4.694;2023-02-15T13:32:28;11.30;99.90
8824;DHT22;4448;50.904;4.694;2023-02-15T13:35:00;11.30;99.90
8824;DHT22;4448;50.904;4.694;2023-02-15T13:40:21;11.30;99.90
8824;DHT22;4448;50.904;4.694;2023-02-15T13:48:41;11.30;99.90
8824;DHT22;4448;50.904;4.694;2023-02-15T13:51:30;11.30;99.90
8824;DHT22;4448;50.904;4.694;2023-02-15T14:10:59;11.30;99.90
8824;DHT22;4448;50.904;4.694;2023-02-15T14:19:35;11.40;99.90
8824;DHT22;4448;50.904;4.694;2023-02-15T14:22:36;11.30;99.90
8824;DHT22;4448;50.904;4.694;2023-02-15T14:28:01;11.40;99.90
8824;DHT22;4448;50.904;4.694;2023-02-15T14:30:32;11.40;99.90
8824;DHT22;4448;50.904;4.694;2023-02-15T14:33:37;11.40;99.90
8824;DHT22;4448;50.904;4.694;2023-02-15T14:36:15;11.40;99.90
8824;DHT22;4448;50.904;4.694;2023-02-15T14:42:02;11.40;99.90
8824;DHT22;4448;50.904;4.694;2023-02-15T14:44:35;11.40;99.90
8824;DHT22;4448;50.904;4.694;2023-02-15T14:47:20;11.40;99.90
8824;DHT22;4448;50.904;4.694;2023-02-15T14:49:48;11.40;99.90
8824;DHT22;4448;50.904;4.694;2023-02-15T14:52:13;11.40;99.90
8824;DHT22;4448;50.904;4.694;2023-02-15T15:04:44;11.40;99.90
8824;DHT22;4448;50.904;4.694;2023-02-15T15:07:23;11.40;99.90
8824;DHT22;4448;50.904;4.694;2023-02-15T15:10:07;11.40;99.90
8824;DHT22;4448;50.904;4.694;2023-02-15T15:12:42;11.40;99.90
8824;DHT22;4448;50.904;4.694;2023-02-15T15:15:13;11.40;99.90
8824;DHT22;4448;50.904;4.694;2023-02-15T15:25:48;11.30;99.90
8824;DHT22;4448;50.904;4.694;2023-02-15T15:44:59;11.30;99.90
8824;DHT22;4448;50.904;4.694;2023-02-15T15:50:58;11.20;99.90
8824;DHT22;4448;50.904;4.694;2023-02-15T15:53:27;11.20;99.90
8824;DHT22;4448;50.904;4.694;2023-02-15T15:55:58;11.20;99.90
8824;DHT22;4448;50.904;4.694;2023-02-15T15:58:25;11.20;99.90
8824;DHT22;4448;50.904;4.694;2023-02-15T16:01:10;11.10;99.90
8824;DHT22;4448;50.904;4.694;2023-02-15T16:03:49;11.10;99.90
8824;DHT22;4448;50.904;4.694;2023-02-15T16:06:34;11.10;99.90
8824;DHT22;4448;50.904;4.694;2023-02-15T16:11:50;11.10;99.90
8824;DHT22;4448;50.904;4.694;2023-02-15T16:14:35;11.00;99.90
8824;DHT22;4448;50.904;4.694;2023-02-15T16:17:04;11.00;99.90
8824;DHT22;4448;50.904;4.694;2023-02-15T16:19:38;11.00;99.90
8824;DHT22;4448;50.904;4.694;2023-02-15T16:22:09;11.00;99.90
8824;DHT22;4448;50.904;4.694;2023-02-15T16:25:04;11.00;99.90
8824;DHT22;4448;50.904;4.694;2023-02-15T16:27:39;10.90;99.90
8824;DHT22;4448;50.904;4.694;2023-02-15T16:32:48;10.90;99.90
8824;DHT22;4448;50.904;4.694;2023-02-15T16:35:19;10.80;99.90
8824;DHT22;4448;50.904;4.694;2023-02-15T16:37:45;10.80;99.90
8824;DHT22;4448;50.904;4.694;2023-02-15T16:43:13;10.70;99.90
8824;DHT22;4448;50.904;4.694;2023-02-15T16:45:36;10.70;99.90
8824;DHT22;4448;50.904;4.694;2023-02-15T16:48:12;10.70;99.90
8824;DHT22;4448;50.904;4.694;2023-02-15T16:50:50;10.60;99.90
8824;DHT22;4448;50.904;4.694;2023-02-15T16:53:26;10.60;99.90
8824;DHT22;4448;50.904;4.694;2023-02-15T16:55:57;10.50;99.90
8824;DHT22;4448;50.904;4.694;2023-02-15T16:58:37;10.50;99.90
8824;DHT22;4448;50.904;4.694;2023-02-15T17:01:07;10.40;99.90
8824;DHT22;4448;50.904;4.694;2023-02-15T17:03:34;10.40;99.90
8824;DHT22;4448;50.904;4.694;2023-02-15T17:06:01;10.40;99.90
8824;DHT22;4448;50.904;4.694;2023-02-15T17:08:33;10.30;99.90
8824;DHT22;4448;50.904;4.694;2023-02-15T17:13:26;10.20;99.90
8824;DHT22;4448;50.904;4.694;2023-02-15T17:18:32;10.20;99.90
8824;DHT22;4448;50.904;4.694;2023-02-15T17:21:10;10.10;99.90
8824;DHT22;4448;50.904;4.694;2023-02-15T17:23:42;10.10;99.90
8824;DHT22;4448;50.904;4.694;2023-02-15T17:26:34;10.10;99.90
8824;DHT22;4448;50.904;4.694;2023-02-15T17:29:02;10.10;99.90
8824;DHT22;4448;50.904;4.694;2023-02-15T17:31:35;10.00;99.90
8824;DHT22;4448;50.904;4.694;2023-02-15T17:34:01;10.00;99.90
8824;DHT22;4448;50.904;4.694;2023-02-15T17:36:28;10.00;99.90
8824;DHT22;4448;50.904;4.694;2023-02-15T17:43:50;10.00;99.90
8824;DHT22;4448;50.904;4.694;2023-02-15T17:46:16;9.90;99.90
8824;DHT22;4448;50.904;4.694;2023-02-15T17:48:46;9.90;99.90
8824;DHT22;4448;50.904;4.694;2023-02-15T17:51:14;9.90;99.90
8824;DHT22;4448;50.904;4.694;2023-02-15T17:53:40;9.90;99.90
8824;DHT22;4448;50.904;4.694;2023-02-15T17:56:06;9.90;99.90
8824;DHT22;4448;50.904;4.694;2023-02-15T17:58:36;9.90;99.90
8824;DHT22;4448;50.904;4.694;2023-02-15T18:01:06;9.90;99.90
8824;DHT22;4448;50.904;4.694;2023-02-15T18:03:52;9.90;99.90
8824;DHT22;4448;50.904;4.694;2023-02-15T18:06:38;9.90;99.90
8824;DHT22;4448;50.904;4.694;2023-02-15T18:09:24;9.90;99.90
8824;DHT22;4448;50.904;4.694;2023-02-15T18:12:27;9.90;99.90
8824;DHT22;4448;50.904;4.694;2023-02-15T18:14:54;9.90;99.90
8824;DHT22;4448;50.904;4.694;2023-02-15T18:17:28;9.80;99.90
8824;DHT22;4448;50.904;4.694;2023-02-15T18:19:54;9.80;99.90
8824;DHT22;4448;50.904;4.694;2023-02-15T18:22:20;9.80;99.90
8824;DHT22;4448;50.904;4.694;2023-02-15T18:24:47;9.80;99.90
8824;DHT22;4448;50.904;4.694;2023-02-15T18:27:14;9.80;99.90
8824;DHT22;4448;50.904;4.694;2023-02-15T18:29:41;9.80;99.90
8824;DHT22;4448;50.904;4.694;2023-02-15T18:32:09;9.80;99.90
8824;DHT22;4448;50.904;4.694;2023-02-15T18:34:40;9.80;99.90
8824;DHT22;4448;50.904;4.694;2023-02-15T18:37:12;9.80;99.90
8824;DHT22;4448;50.904;4.694;2023-02-15T18:39:40;9.70;99.90
8824;DHT22;4448;50.904;4.694;2023-02-15T18:42:37;9.70;99.90
8824;DHT22;4448;50.904;4.694;2023-02-15T18:45:15;9.70;99.90
8824;DHT22;4448;50.904;4.694;2023-02-15T18:47:41;9.70;99.90
8824;DHT22;4448;50.904;4.694;2023-02-15T18:50:07;9.70;99.90
8824;DHT22;4448;50.904;4.694;2023-02-15T18:52:36;9.60;99.90
8824;DHT22;4448;50.904;4.694;2023-02-15T18:55:24;9.70;99.90
8824;DHT22;4448;50.904;4.694;2023-02-15T18:57:52;9.60;99.90
8824;DHT22;4448;50.904;4.694;2023-02-15T19:00:22;9.60;99.90
8824;DHT22;4448;50.904;4.694;2023-02-15T19:02:53;9.70;99.90
8824;DHT22;4448;50.904;4.694;2023-02-15T19:05:19;9.60;99.90
8824;DHT22;4448;50.904;4.694;2023-02-15T19:07:45;9.50;99.90
8824;DHT22;4448;50.904;4.694;2023-02-15T19:10:23;9.50;99.90
8824;DHT22;4448;50.904;4.694;2023-02-15T19:12:50;9.50;99.90
8824;DHT22;4448;50.904;4.694;2023-02-15T19:15:24;9.60;99.90
8824;DHT22;4448;50.904;4.694;2023-02-15T19:17:51;9.60;99.90
8824;DHT22;4448;50.904;4.694;2023-02-15T19:20:20;9.50;99.90
8824;DHT22;4448;50.904;4.694;2023-02-15T19:22:48;9.50;99.90
8824;DHT22;4448;50.904;4.694;2023-02-15T19:25:24;9.50;99.90
8824;DHT22;4448;50.904;4.694;2023-02-15T19:27:50;9.50;99.90
8824;DHT22;4448;50.904;4.694;2023-02-15T19:30:24;9.50;99.90
8824;DHT22;4448;50.904;4.694;2023-02-15T19:32:54;9.50;99.90
8824;DHT22;4448;50.904;4.694;2023-02-15T19:35:24;9.50;99.90
8824;DHT22;4448;50.904;4.694;2023-02-15T19:37:52;9.50;99.90
8824;DHT22;4448;50.904;4.694;2023-02-15T19:40:26;9.50;99.90
8824;DHT22;4448;50.904;4.694;2023-02-15T19:42:54;9.40;99.90
8824;DHT22;4448;50.904;4.694;2023-02-15T19:45:22;9.40;99.90
8824;DHT22;4448;50.904;4.694;2023-02-15T19:47:48;9.40;99.90
8824;DHT22;4448;50.904;4.694;2023-02-15T19:50:21;9.40;99.90
8824;DHT22;4448;50.904;4.694;2023-02-15T19:52:48;9.40;99.90
8824;DHT22;4448;50.904;4.694;2023-02-15T19:55:30;9.30;99.90
8824;DHT22;4448;50.904;4.694;2023-02-15T19:57:59;9.30;99.90
8824;DHT22;4448;50.904;4.694;2023-02-15T20:00:32;9.30;99.90
8824;DHT22;4448;50.904;4.694;2023-02-15T20:02:59;9.30;99.90
8824;DHT22;4448;50.904;4.694;2023-02-15T20:05:29;9.30;99.90